sensor_id;sensor_type;location;lat;lon;timestamp;pressure;altitude;pressure_sealevel;temperature
85302;BMP280;75707;46.948;7.410;2024-03-06T00:00:52;953.6312256;;;5.741577148
85302;BMP280;75707;46.948;7.410;2024-03-06T00:01:53;953.6570435;;;5.751647949
85302;BMP280;75707;46.948;7.410;2024-03-06T00:02:54;953.6621704;;;5.731506348
85302;BMP280;75707;46.948;7.410;2024-03-06T00:03:54;953.6273193;;;5.751647949
85302;BMP280;75707;46.948;7.410;2024-03-06T00:04:56;953.6772461;;;5.812072754
85302;BMP280;75707;46.948;7.410;2024-03-06T00:06:27;953.6885376;;;5.842285156
85302;BMP280;75707;46.948;7.410;2024-03-06T00:07:28;953.7036133;;;5.842285156
85302;BMP280;75707;46.948;7.410;2024-03-06T00:08:28;953.6915894;;;5.832214355
85302;BMP280;75707;46.948;7.410;2024-03-06T00:09:29;953.7064209;;;5.832214355
85302;BMP280;75707;46.948;7.410;2024-03-06T00:10:30;953.7090454;;;5.852355957
85302;BMP280;75707;46.948;7.410;2024-03-06T00:11:30;953.7268677;;;5.953063965
85302;BMP280;75707;46.948;7.410;2024-03-06T00:12:31;953.7058105;;;5.983276367
85302;BMP280;75707;46.948;7.410;2024-03-06T00:13:32;953.7016602;;;5.993347168
85302;BMP280;75707;46.948;7.410;2024-03-06T00:14:33;953.6450806;;;6.02355957
85302;BMP280;75707;46.948;7.410;2024-03-06T00:15:33;953.6071777;;;6.063842773
85302;BMP280;75707;46.948;7.410;2024-03-06T00:16:34;953.5923462;;;6.063842773
85302;BMP280;75707;46.948;7.410;2024-03-06T00:17:35;953.6152954;;;6.104125977
85302;BMP280;75707;46.948;7.410;2024-03-06T00:18:35;953.6246948;;;6.083984375
85302;BMP280;75707;46.948;7.410;2024-03-06T00:19:36;953.6467285;;;6.083984375
85302;BMP280;75707;46.948;7.410;2024-03-06T00:20:37;953.5999756;;;6.104125977
85302;BMP280;75707;46.948;7.410;2024-03-06T00:21:37;953.6185913;;;6.02355957
85302;BMP280;75707;46.948;7.410;2024-03-06T00:22:38;953.5912476;;;5.963134766
85302;BMP280;75707;46.948;7.410;2024-03-06T00:23:39;953.6499023;;;6.02355957
85302;BMP280;75707;46.948;7.410;2024-03-06T00:24:39;953.6256104;;;6.01348877
85302;BMP280;75707;46.948;7.410;2024-03-06T00:25:40;953.6290894;;;5.993347168
85302;BMP280;75707;46.948;7.410;2024-03-06T00:26:41;953.6311035;;;5.922851563
85302;BMP280;75707;46.948;7.410;2024-03-06T00:27:41;953.5981445;;;5.902709961
85302;BMP280;75707;46.948;7.410;2024-03-06T00:28:42;953.6582642;;;5.902709961
85302;BMP280;75707;46.948;7.410;2024-03-06T00:29:43;953.6853027;;;5.882568359
85302;BMP280;75707;46.948;7.410;2024-03-06T00:30:43;953.6864624;;;5.852355957
85302;BMP280;75707;46.948;7.410;2024-03-06T00:31:44;953.7023926;;;5.872497559
85302;BMP280;75707;46.948;7.410;2024-03-06T00:32:45;953.6864014;;;5.882568359
85302;BMP280;75707;46.948;7.410;2024-03-06T00:33:45;953.6895142;;;5.872497559
85302;BMP280;75707;46.948;7.410;2024-03-06T00:34:46;953.6968994;;;5.882568359
85302;BMP280;75707;46.948;7.410;2024-03-06T00:35:47;953.6970215;;;5.922851563
85302;BMP280;75707;46.948;7.410;2024-03-06T00:36:48;953.7335815;;;5.922851563
85302;BMP280;75707;46.948;7.410;2024-03-06T00:37:48;953.7536011;;;5.922851563
85302;BMP280;75707;46.948;7.410;2024-03-06T00:38:49;953.7751465;;;5.983276367
85302;BMP280;75707;46.948;7.410;2024-03-06T00:39:49;953.7746582;;;6.033630371
85302;BMP280;75707;46.948;7.410;2024-03-06T00:40:50;953.7860107;;;6.063842773
85302;BMP280;75707;46.948;7.410;2024-03-06T00:41:51;953.7837524;;;6.083984375
85302;BMP280;75707;46.948;7.410;2024-03-06T00:42:51;953.8404541;;;6.14440918
85302;BMP280;75707;46.948;7.410;2024-03-06T00:43:52;953.8244019;;;6.14440918
85302;BMP280;75707;46.948;7.410;2024-03-06T00:44:53;953.8322144;;;6.164550781
85302;BMP280;75707;46.948;7.410;2024-03-06T00:45:53;953.8404541;;;6.164550781
85302;BMP280;75707;46.948;7.410;2024-03-06T00:46:54;953.8408813;;;6.204833984
85302;BMP280;75707;46.948;7.410;2024-03-06T00:47:55;953.9057007;;;6.204833984
85302;BMP280;75707;46.948;7.410;2024-03-06T00:49:26;953.8989868;;;6.245117188
85302;BMP280;75707;46.948;7.410;2024-03-06T00:50:27;953.8998413;;;6.245117188
85302;BMP280;75707;46.948;7.410;2024-03-06T00:51:27;953.9449463;;;6.265258789
85302;BMP280;75707;46.948;7.410;2024-03-06T00:52:28;953.9430542;;;6.27532959
85302;BMP280;75707;46.948;7.410;2024-03-06T00:53:29;953.9609985;;;6.315612793
85302;BMP280;75707;46.948;7.410;2024-03-06T00:54:29;953.9349976;;;6.355895996
85302;BMP280;75707;46.948;7.410;2024-03-06T00:55:30;953.9742432;;;6.325683594
85302;BMP280;75707;46.948;7.410;2024-03-06T00:56:31;953.984375;;;6.396179199
85302;BMP280;75707;46.948;7.410;2024-03-06T00:57:32;953.9746704;;;6.396179199
85302;BMP280;75707;46.948;7.410;2024-03-06T00:58:32;953.9620972;;;6.396179199
85302;BMP280;75707;46.948;7.410;2024-03-06T00:59:33;953.9584351;;;6.396179199
85302;BMP280;75707;46.948;7.410;2024-03-06T01:00:34;953.9602051;;;6.416320801
85302;BMP280;75707;46.948;7.410;2024-03-06T01:01:34;953.9646606;;;6.426391602
85302;BMP280;75707;46.948;7.410;2024-03-06T01:02:35;953.973999;;;6.446533203
85302;BMP280;75707;46.948;7.410;2024-03-06T01:03:37;953.9938965;;;6.476745605
85302;BMP280;75707;46.948;7.410;2024-03-06T01:04:36;954.0012207;;;6.506958008
85302;BMP280;75707;46.948;7.410;2024-03-06T01:05:37;954.0046997;;;6.527099609
85302;BMP280;75707;46.948;7.410;2024-03-06T01:06:38;953.9963989;;;6.527099609
85302;BMP280;75707;46.948;7.410;2024-03-06T01:07:39;954.0106201;;;6.53717041
85302;BMP280;75707;46.948;7.410;2024-03-06T01:08:39;954.0161133;;;6.53717041
85302;BMP280;75707;46.948;7.410;2024-03-06T01:09:40;954.0324707;;;6.496887207
85302;BMP280;75707;46.948;7.410;2024-03-06T01:10:41;954.0357666;;;6.446533203
85302;BMP280;75707;46.948;7.410;2024-03-06T01:11:41;954.0889282;;;6.386108398
85302;BMP280;75707;46.948;7.410;2024-03-06T01:12:42;954.0728149;;;6.345825195
85302;BMP280;75707;46.948;7.410;2024-03-06T01:13:43;954.0499878;;;6.27532959
85302;BMP280;75707;46.948;7.410;2024-03-06T01:14:44;954.0148315;;;6.194763184
85302;BMP280;75707;46.948;7.410;2024-03-06T01:15:44;954.0925903;;;6.114196777
85302;BMP280;75707;46.948;7.410;2024-03-06T01:16:45;954.0894775;;;6.033630371
85302;BMP280;75707;46.948;7.410;2024-03-06T01:17:45;954.0828247;;;5.983276367
85302;BMP280;75707;46.948;7.410;2024-03-06T01:18:46;954.0497437;;;6.01348877
85302;BMP280;75707;46.948;7.410;2024-03-06T01:19:46;954.0727539;;;5.993347168
85302;BMP280;75707;46.948;7.410;2024-03-06T01:20:47;954.0599976;;;5.993347168
85302;BMP280;75707;46.948;7.410;2024-03-06T01:21:48;954.0726318;;;5.993347168
85302;BMP280;75707;46.948;7.410;2024-03-06T01:22:49;954.0957642;;;5.983276367
85302;BMP280;75707;46.948;7.410;2024-03-06T01:23:49;954.0586548;;;6.033630371
85302;BMP280;75707;46.948;7.410;2024-03-06T01:24:50;954.0499878;;;6.01348877
85302;BMP280;75707;46.948;7.410;2024-03-06T01:25:51;954.0889282;;;5.993347168
85302;BMP280;75707;46.948;7.410;2024-03-06T01:26:51;954.0722046;;;5.953063965
85302;BMP280;75707;46.948;7.410;2024-03-06T01:27:52;954.0415649;;;5.902709961
85302;BMP280;75707;46.948;7.410;2024-03-06T01:28:53;954.0370483;;;5.922851563
85302;BMP280;75707;46.948;7.410;2024-03-06T01:29:53;954.0524902;;;5.872497559
85302;BMP280;75707;46.948;7.410;2024-03-06T01:30:54;954.039978;;;5.781860352
85302;BMP280;75707;46.948;7.410;2024-03-06T01:32:25;954.0826416;;;5.751647949
85302;BMP280;75707;46.948;7.410;2024-03-06T01:33:26;954.0511475;;;5.741577148
85302;BMP280;75707;46.948;7.410;2024-03-06T01:34:26;954.0641479;;;5.691223145
85302;BMP280;75707;46.948;7.410;2024-03-06T01:35:27;954.0671997;;;5.661010742
85302;BMP280;75707;46.948;7.410;2024-03-06T01:36:28;954.039856;;;5.620727539
85302;BMP280;75707;46.948;7.410;2024-03-06T01:37:28;954.071228;;;5.600585938
85302;BMP280;75707;46.948;7.410;2024-03-06T01:38:29;954.0612793;;;5.590515137
85302;BMP280;75707;46.948;7.410;2024-03-06T01:39:30;954.0578003;;;5.590515137
85302;BMP280;75707;46.948;7.410;2024-03-06T01:40:30;954.0581055;;;5.590515137
85302;BMP280;75707;46.948;7.410;2024-03-06T01:41:31;954.0303345;;;5.590515137
85302;BMP280;75707;46.948;7.410;2024-03-06T01:42:32;954.0170288;;;5.580444336
85302;BMP280;75707;46.948;7.410;2024-03-06T01:43:36;954.0334473;;;5.580444336
85302;BMP280;75707;46.948;7.410;2024-03-06T01:44:33;954.0395508;;;5.590515137
85302;BMP280;75707;46.948;7.410;2024-03-06T01:45:33;954.0726318;;;5.600585938
85302;BMP280;75707;46.948;7.410;2024-03-06T01:46:34;954.1141968;;;5.63079834
85302;BMP280;75707;46.948;7.410;2024-03-06T01:47:35;954.1065674;;;5.590515137
85302;BMP280;75707;46.948;7.410;2024-03-06T01:48:35;954.0982666;;;5.590515137
85302;BMP280;75707;46.948;7.410;2024-03-06T01:49:36;954.1395264;;;5.590515137
85302;BMP280;75707;46.948;7.410;2024-03-06T01:50:37;954.1715698;;;5.580444336
85302;BMP280;75707;46.948;7.410;2024-03-06T01:51:38;954.1334229;;;5.590515137
85302;BMP280;75707;46.948;7.410;2024-03-06T01:52:38;954.1057739;;;5.580444336
85302;BMP280;75707;46.948;7.410;2024-03-06T01:53:39;954.1234131;;;5.600585938
85302;BMP280;75707;46.948;7.410;2024-03-06T01:54:40;954.057373;;;5.590515137
85302;BMP280;75707;46.948;7.410;2024-03-06T01:55:40;954.0725708;;;5.600585938
85302;BMP280;75707;46.948;7.410;2024-03-06T01:56:43;954.0917358;;;5.600585938
85302;BMP280;75707;46.948;7.410;2024-03-06T01:57:42;954.039856;;;5.650939941
85302;BMP280;75707;46.948;7.410;2024-03-06T01:58:43;954.0896606;;;5.691223145
85302;BMP280;75707;46.948;7.410;2024-03-06T01:59:43;954.1273193;;;5.731506348
85302;BMP280;75707;46.948;7.410;2024-03-06T02:00:44;954.1246338;;;5.751647949
85302;BMP280;75707;46.948;7.410;2024-03-06T02:01:44;954.1381836;;;5.771789551
85302;BMP280;75707;46.948;7.410;2024-03-06T02:02:45;954.1430664;;;5.741577148
85302;BMP280;75707;46.948;7.410;2024-03-06T02:03:46;954.1190796;;;5.751647949
85302;BMP280;75707;46.948;7.410;2024-03-06T02:04:46;954.1378174;;;5.802001953
85302;BMP280;75707;46.948;7.410;2024-03-06T02:05:47;954.1893921;;;5.802001953
85302;BMP280;75707;46.948;7.410;2024-03-06T02:06:47;954.1716919;;;5.802001953
85302;BMP280;75707;46.948;7.410;2024-03-06T02:07:48;954.1588135;;;5.751647949
85302;BMP280;75707;46.948;7.410;2024-03-06T02:08:49;954.2064209;;;5.731506348
85302;BMP280;75707;46.948;7.410;2024-03-06T02:09:50;954.211853;;;5.701293945
85302;BMP280;75707;46.948;7.410;2024-03-06T02:10:50;954.2134399;;;5.731506348
85302;BMP280;75707;46.948;7.410;2024-03-06T02:11:51;954.2435303;;;5.741577148
85302;BMP280;75707;46.948;7.410;2024-03-06T02:12:52;954.2296143;;;5.781860352
85302;BMP280;75707;46.948;7.410;2024-03-06T02:13:52;954.2061157;;;5.781860352
85302;BMP280;75707;46.948;7.410;2024-03-06T02:14:53;954.2076416;;;5.781860352
85302;BMP280;75707;46.948;7.410;2024-03-06T02:15:54;954.2416382;;;5.812072754
85302;BMP280;75707;46.948;7.410;2024-03-06T02:17:25;954.1967773;;;5.872497559
85302;BMP280;75707;46.948;7.410;2024-03-06T02:18:26;954.210144;;;5.882568359
85302;BMP280;75707;46.948;7.410;2024-03-06T02:19:36;954.1931152;;;5.872497559
85302;BMP280;75707;46.948;7.410;2024-03-06T02:20:27;954.1831055;;;5.882568359
85302;BMP280;75707;46.948;7.410;2024-03-06T02:21:28;954.2162476;;;5.872497559
85302;BMP280;75707;46.948;7.410;2024-03-06T02:22:59;954.2003784;;;5.872497559
85302;BMP280;75707;46.948;7.410;2024-03-06T02:24:30;954.2008057;;;5.872497559
85302;BMP280;75707;46.948;7.410;2024-03-06T02:25:30;954.2131348;;;5.832214355
85302;BMP280;75707;46.948;7.410;2024-03-06T02:26:31;954.2168579;;;5.812072754
85302;BMP280;75707;46.948;7.410;2024-03-06T02:27:32;954.1820068;;;5.832214355
85302;BMP280;75707;46.948;7.410;2024-03-06T02:28:32;954.1829834;;;5.832214355
85302;BMP280;75707;46.948;7.410;2024-03-06T02:29:33;954.220459;;;5.852355957
85302;BMP280;75707;46.948;7.410;2024-03-06T02:30:34;954.1859131;;;5.882568359
85302;BMP280;75707;46.948;7.410;2024-03-06T02:31:34;954.2134399;;;5.922851563
85302;BMP280;75707;46.948;7.410;2024-03-06T02:32:35;954.2034302;;;5.932922363
85302;BMP280;75707;46.948;7.410;2024-03-06T02:33:36;954.217041;;;5.953063965
85302;BMP280;75707;46.948;7.410;2024-03-06T02:34:36;954.1890869;;;5.963134766
85302;BMP280;75707;46.948;7.410;2024-03-06T02:35:37;954.2037354;;;5.953063965
85302;BMP280;75707;46.948;7.410;2024-03-06T02:36:38;954.211792;;;5.993347168
85302;BMP280;75707;46.948;7.410;2024-03-06T02:37:38;954.1613159;;;6.01348877
85302;BMP280;75707;46.948;7.410;2024-03-06T02:38:39;954.1775513;;;6.02355957
85302;BMP280;75707;46.948;7.410;2024-03-06T02:39:40;954.1599731;;;6.01348877
85302;BMP280;75707;46.948;7.410;2024-03-06T02:40:42;954.1983032;;;6.02355957
85302;BMP280;75707;46.948;7.410;2024-03-06T02:41:41;954.1896362;;;6.053771973
85302;BMP280;75707;46.948;7.410;2024-03-06T02:42:42;954.1838989;;;5.932922363
85302;BMP280;75707;46.948;7.410;2024-03-06T02:43:42;954.182251;;;5.922851563
85302;BMP280;75707;46.948;7.410;2024-03-06T02:44:43;954.1783447;;;5.963134766
85302;BMP280;75707;46.948;7.410;2024-03-06T02:45:44;954.1928101;;;5.993347168
85302;BMP280;75707;46.948;7.410;2024-03-06T02:46:46;954.204834;;;6.033630371
85302;BMP280;75707;46.948;7.410;2024-03-06T02:47:45;954.2056274;;;6.083984375
85302;BMP280;75707;46.948;7.410;2024-03-06T02:48:46;954.2023315;;;6.114196777
85302;BMP280;75707;46.948;7.410;2024-03-06T02:49:46;954.1983032;;;6.063842773
85302;BMP280;75707;46.948;7.410;2024-03-06T02:50:47;954.2104492;;;5.993347168
85302;BMP280;75707;46.948;7.410;2024-03-06T02:51:48;954.1509399;;;6.01348877
85302;BMP280;75707;46.948;7.410;2024-03-06T02:52:48;954.1687622;;;5.963134766
85302;BMP280;75707;46.948;7.410;2024-03-06T02:53:49;954.2095337;;;5.932922363
85302;BMP280;75707;46.948;7.410;2024-03-06T02:54:50;954.2008057;;;5.922851563
85302;BMP280;75707;46.948;7.410;2024-03-06T02:55:50;954.2249146;;;5.953063965
85302;BMP280;75707;46.948;7.410;2024-03-06T02:56:51;954.2331543;;;5.963134766
85302;BMP280;75707;46.948;7.410;2024-03-06T02:57:52;954.2385864;;;5.983276367
85302;BMP280;75707;46.948;7.410;2024-03-06T02:58:53;954.227417;;;6.01348877
85302;BMP280;75707;46.948;7.410;2024-03-06T03:00:24;954.2435303;;;6.02355957
85302;BMP280;75707;46.948;7.410;2024-03-06T03:01:25;954.2683716;;;6.01348877
85302;BMP280;75707;46.948;7.410;2024-03-06T03:02:25;954.2245483;;;5.983276367
85302;BMP280;75707;46.948;7.410;2024-03-06T03:03:26;954.2198486;;;5.953063965
85302;BMP280;75707;46.948;7.410;2024-03-06T03:04:27;954.2391357;;;5.963134766
85302;BMP280;75707;46.948;7.410;2024-03-06T03:05:27;954.2754517;;;5.963134766
85302;BMP280;75707;46.948;7.410;2024-03-06T03:06:28;954.2531738;;;5.953063965
85302;BMP280;75707;46.948;7.410;2024-03-06T03:07:29;954.2346191;;;5.902709961
85302;BMP280;75707;46.948;7.410;2024-03-06T03:08:30;954.2633057;;;5.902709961
85302;BMP280;75707;46.948;7.410;2024-03-06T03:09:30;954.2718506;;;5.882568359
85302;BMP280;75707;46.948;7.410;2024-03-06T03:10:31;954.2429199;;;5.882568359
85302;BMP280;75707;46.948;7.410;2024-03-06T03:11:31;954.2396851;;;5.902709961
85302;BMP280;75707;46.948;7.410;2024-03-06T03:12:32;954.2756348;;;5.902709961
85302;BMP280;75707;46.948;7.410;2024-03-06T03:13:33;954.2653198;;;5.902709961
85302;BMP280;75707;46.948;7.410;2024-03-06T03:14:33;954.2578125;;;5.882568359
85302;BMP280;75707;46.948;7.410;2024-03-06T03:15:34;954.2861938;;;5.902709961
85302;BMP280;75707;46.948;7.410;2024-03-06T03:16:35;954.309082;;;5.902709961
85302;BMP280;75707;46.948;7.410;2024-03-06T03:17:35;954.3139038;;;5.872497559
85302;BMP280;75707;46.948;7.410;2024-03-06T03:18:36;954.2973633;;;5.842285156
85302;BMP280;75707;46.948;7.410;2024-03-06T03:19:37;954.3173218;;;5.872497559
85302;BMP280;75707;46.948;7.410;2024-03-06T03:20:37;954.3189697;;;5.922851563
85302;BMP280;75707;46.948;7.410;2024-03-06T03:21:38;954.3198242;;;5.932922363
85302;BMP280;75707;46.948;7.410;2024-03-06T03:22:39;954.3178101;;;5.882568359
85302;BMP280;75707;46.948;7.410;2024-03-06T03:23:39;954.3348999;;;5.902709961
85302;BMP280;75707;46.948;7.410;2024-03-06T03:24:41;954.3265381;;;5.922851563
85302;BMP280;75707;46.948;7.410;2024-03-06T03:25:42;954.2693481;;;5.983276367
85302;BMP280;75707;46.948;7.410;2024-03-06T03:26:41;954.3114014;;;5.983276367
85302;BMP280;75707;46.948;7.410;2024-03-06T03:27:42;954.2663574;;;6.033630371
85302;BMP280;75707;46.948;7.410;2024-03-06T03:28:43;954.3254395;;;6.053771973
85302;BMP280;75707;46.948;7.410;2024-03-06T03:29:43;954.3101807;;;6.104125977
85302;BMP280;75707;46.948;7.410;2024-03-06T03:30:44;954.3012695;;;6.134338379
85302;BMP280;75707;46.948;7.410;2024-03-06T03:31:45;954.3184204;;;6.134338379
85302;BMP280;75707;46.948;7.410;2024-03-06T03:32:45;954.3223267;;;6.134338379
85302;BMP280;75707;46.948;7.410;2024-03-06T03:33:46;954.2672119;;;6.14440918
85302;BMP280;75707;46.948;7.410;2024-03-06T03:34:47;954.2837524;;;6.14440918
85302;BMP280;75707;46.948;7.410;2024-03-06T03:35:47;954.2885742;;;6.164550781
85302;BMP280;75707;46.948;7.410;2024-03-06T03:36:48;954.3269043;;;6.174621582
85302;BMP280;75707;46.948;7.410;2024-03-06T03:37:49;954.335083;;;6.174621582
85302;BMP280;75707;46.948;7.410;2024-03-06T03:38:49;954.3013916;;;6.174621582
85302;BMP280;75707;46.948;7.410;2024-03-06T03:39:50;954.2839355;;;6.204833984
85302;BMP280;75707;46.948;7.410;2024-03-06T03:40:51;954.303772;;;6.194763184
85302;BMP280;75707;46.948;7.410;2024-03-06T03:41:52;954.2731323;;;6.204833984
85302;BMP280;75707;46.948;7.410;2024-03-06T03:42:52;954.2857056;;;6.194763184
85302;BMP280;75707;46.948;7.410;2024-03-06T03:44:24;954.3234253;;;6.204833984
85302;BMP280;75707;46.948;7.410;2024-03-06T03:45:24;954.3013916;;;6.194763184
85302;BMP280;75707;46.948;7.410;2024-03-06T03:46:25;954.3068237;;;6.14440918
85302;BMP280;75707;46.948;7.410;2024-03-06T03:47:26;954.329834;;;6.083984375
85302;BMP280;75707;46.948;7.410;2024-03-06T03:48:26;954.314209;;;6.02355957
85302;BMP280;75707;46.948;7.410;2024-03-06T03:49:27;954.368103;;;6.01348877
85302;BMP280;75707;46.948;7.410;2024-03-06T03:50:28;954.3557129;;;6.01348877
85302;BMP280;75707;46.948;7.410;2024-03-06T03:51:28;954.3498535;;;6.01348877
85302;BMP280;75707;46.948;7.410;2024-03-06T03:52:29;954.3556519;;;6.02355957
85302;BMP280;75707;46.948;7.410;2024-03-06T03:53:30;954.3743896;;;6.02355957
85302;BMP280;75707;46.948;7.410;2024-03-06T03:54:30;954.3630981;;;6.053771973
85302;BMP280;75707;46.948;7.410;2024-03-06T03:55:31;954.3824463;;;6.083984375
85302;BMP280;75707;46.948;7.410;2024-03-06T03:56:31;954.3439331;;;6.083984375
85302;BMP280;75707;46.948;7.410;2024-03-06T03:57:32;954.3670044;;;6.134338379
85302;BMP280;75707;46.948;7.410;2024-03-06T03:58:33;954.3634644;;;6.114196777
85302;BMP280;75707;46.948;7.410;2024-03-06T03:59:34;954.3457642;;;6.114196777
85302;BMP280;75707;46.948;7.410;2024-03-06T04:00:35;954.3886719;;;6.134338379
85302;BMP280;75707;46.948;7.410;2024-03-06T04:01:35;954.3745117;;;6.164550781
85302;BMP280;75707;46.948;7.410;2024-03-06T04:02:36;954.3599854;;;6.174621582
85302;BMP280;75707;46.948;7.410;2024-03-06T04:03:37;954.3563843;;;6.174621582
85302;BMP280;75707;46.948;7.410;2024-03-06T04:04:37;954.3463135;;;6.174621582
85302;BMP280;75707;46.948;7.410;2024-03-06T04:05:38;954.3292236;;;6.174621582
85302;BMP280;75707;46.948;7.410;2024-03-06T04:06:39;954.3668213;;;6.114196777
85302;BMP280;75707;46.948;7.410;2024-03-06T04:07:39;954.3137207;;;6.164550781
85302;BMP280;75707;46.948;7.410;2024-03-06T04:08:40;954.3399048;;;6.174621582
85302;BMP280;75707;46.948;7.410;2024-03-06T04:09:40;954.3382568;;;6.174621582
85302;BMP280;75707;46.948;7.410;2024-03-06T04:10:41;954.3416138;;;6.194763184
85302;BMP280;75707;46.948;7.410;2024-03-06T04:11:42;954.3256836;;;6.174621582
85302;BMP280;75707;46.948;7.410;2024-03-06T04:12:42;954.4234619;;;6.134338379
85302;BMP280;75707;46.948;7.410;2024-03-06T04:13:43;954.420166;;;6.104125977
85302;BMP280;75707;46.948;7.410;2024-03-06T04:14:44;954.440918;;;6.033630371
85302;BMP280;75707;46.948;7.410;2024-03-06T04:15:44;954.4559937;;;6.053771973
85302;BMP280;75707;46.948;7.410;2024-03-06T04:16:45;954.4451294;;;6.063842773
85302;BMP280;75707;46.948;7.410;2024-03-06T04:17:46;954.4815674;;;6.134338379
85302;BMP280;75707;46.948;7.410;2024-03-06T04:18:46;954.4580688;;;6.114196777
85302;BMP280;75707;46.948;7.410;2024-03-06T04:19:47;954.4685669;;;6.114196777
85302;BMP280;75707;46.948;7.410;2024-03-06T04:20:48;954.513916;;;6.164550781
85302;BMP280;75707;46.948;7.410;2024-03-06T04:21:48;954.5353394;;;6.194763184
85302;BMP280;75707;46.948;7.410;2024-03-06T04:22:49;954.5595093;;;6.194763184
85302;BMP280;75707;46.948;7.410;2024-03-06T04:23:50;954.5854492;;;6.214904785
85302;BMP280;75707;46.948;7.410;2024-03-06T04:24:51;954.6369019;;;6.235046387
85302;BMP280;75707;46.948;7.410;2024-03-06T04:25:51;954.5892944;;;6.214904785
85302;BMP280;75707;46.948;7.410;2024-03-06T04:26:52;954.592041;;;6.214904785
85302;BMP280;75707;46.948;7.410;2024-03-06T04:28:23;954.6107788;;;6.235046387
85302;BMP280;75707;46.948;7.410;2024-03-06T04:29:24;954.6221924;;;6.214904785
85302;BMP280;75707;46.948;7.410;2024-03-06T04:30:24;954.6585693;;;6.174621582
85302;BMP280;75707;46.948;7.410;2024-03-06T04:31:25;954.6447144;;;6.134338379
85302;BMP280;75707;46.948;7.410;2024-03-06T04:32:26;954.6456299;;;6.083984375
85302;BMP280;75707;46.948;7.410;2024-03-06T04:33:27;954.6643066;;;6.02355957
85302;BMP280;75707;46.948;7.410;2024-03-06T04:34:27;954.6838379;;;5.993347168
85302;BMP280;75707;46.948;7.410;2024-03-06T04:35:28;954.6793823;;;5.932922363
85302;BMP280;75707;46.948;7.410;2024-03-06T04:36:29;954.7156372;;;5.882568359
85302;BMP280;75707;46.948;7.410;2024-03-06T04:37:29;954.7067261;;;5.882568359
85302;BMP280;75707;46.948;7.410;2024-03-06T04:38:30;954.7279663;;;5.872497559
85302;BMP280;75707;46.948;7.410;2024-03-06T04:39:31;954.708252;;;5.872497559
85302;BMP280;75707;46.948;7.410;2024-03-06T04:40:31;954.7507935;;;5.842285156
85302;BMP280;75707;46.948;7.410;2024-03-06T04:41:32;954.7711182;;;5.832214355
85302;BMP280;75707;46.948;7.410;2024-03-06T04:42:33;954.7804565;;;5.781860352
85302;BMP280;75707;46.948;7.410;2024-03-06T04:43:33;954.7276611;;;5.781860352
85302;BMP280;75707;46.948;7.410;2024-03-06T04:44:34;954.762207;;;5.731506348
85302;BMP280;75707;46.948;7.410;2024-03-06T04:45:35;954.7255249;;;5.731506348
85302;BMP280;75707;46.948;7.410;2024-03-06T04:46:35;954.7402954;;;5.671081543
85302;BMP280;75707;46.948;7.410;2024-03-06T04:47:36;954.7490845;;;5.620727539
85302;BMP280;75707;46.948;7.410;2024-03-06T04:48:37;954.7385864;;;5.600585938
85302;BMP280;75707;46.948;7.410;2024-03-06T04:49:37;954.7178345;;;5.661010742
85302;BMP280;75707;46.948;7.410;2024-03-06T04:50:38;954.7525024;;;5.650939941
85302;BMP280;75707;46.948;7.410;2024-03-06T04:51:39;954.7504883;;;5.661010742
85302;BMP280;75707;46.948;7.410;2024-03-06T04:52:40;954.7475586;;;5.650939941
85302;BMP280;75707;46.948;7.410;2024-03-06T04:53:40;954.7179565;;;5.661010742
85302;BMP280;75707;46.948;7.410;2024-03-06T04:54:41;954.7374878;;;5.701293945
85302;BMP280;75707;46.948;7.410;2024-03-06T04:55:41;954.7532959;;;5.751647949
85302;BMP280;75707;46.948;7.410;2024-03-06T04:56:42;954.7358398;;;5.781860352
85302;BMP280;75707;46.948;7.410;2024-03-06T04:57:43;954.7546997;;;5.852355957
85302;BMP280;75707;46.948;7.410;2024-03-06T04:58:43;954.7848511;;;5.842285156
85302;BMP280;75707;46.948;7.410;2024-03-06T04:59:44;954.7753906;;;5.922851563
85302;BMP280;75707;46.948;7.410;2024-03-06T05:00:45;954.7668457;;;5.983276367
85302;BMP280;75707;46.948;7.410;2024-03-06T05:01:45;954.7745361;;;5.963134766
85302;BMP280;75707;46.948;7.410;2024-03-06T05:02:46;954.8342285;;;5.953063965
85302;BMP280;75707;46.948;7.410;2024-03-06T05:03:46;954.7771606;;;5.902709961
85302;BMP280;75707;46.948;7.410;2024-03-06T05:04:47;954.7932739;;;5.882568359
85302;BMP280;75707;46.948;7.410;2024-03-06T05:05:48;954.7890625;;;5.852355957
85302;BMP280;75707;46.948;7.410;2024-03-06T05:06:48;954.7927856;;;5.832214355
85302;BMP280;75707;46.948;7.410;2024-03-06T05:07:49;954.8369751;;;5.802001953
85302;BMP280;75707;46.948;7.410;2024-03-06T05:08:50;954.8300171;;;5.802001953
85302;BMP280;75707;46.948;7.410;2024-03-06T05:09:50;954.845459;;;5.771789551
85302;BMP280;75707;46.948;7.410;2024-03-06T05:10:51;954.7959595;;;5.741577148
85302;BMP280;75707;46.948;7.410;2024-03-06T05:11:51;954.8283691;;;5.701293945
85302;BMP280;75707;46.948;7.410;2024-03-06T05:13:23;954.8275146;;;5.671081543
85302;BMP280;75707;46.948;7.410;2024-03-06T05:14:23;954.8845215;;;5.701293945
85302;BMP280;75707;46.948;7.410;2024-03-06T05:15:24;954.8913574;;;5.751647949